Warwick, Australia
Current Conditions -  °F | °C
As of 9:00 AM on Sunday 21 Dec 2014 (Local Time) from YAMB Reporting Station
Scattered Clouds Scattered Clouds  
Wind Chill: 79°   Ceiling: Unl
Heat Index: 80°   Visibility: 6mi
Dew Point: 63°   Wind: 8mph
Humidity: 57%   Direction: 100°E
Pressure: 30.06"   Gusts: NA
Location:  28.2°S, 152.1°E
Report Text: YAMB 202300Z AUTO 10007KT 9999 // SCT033 26/17 Q1018
Loading
Personal Weather Stations






























Interactive Weather Map New forecast layout! Learn more

10-Day Weather Forecast

Advertisements
Track Severe Weather on mobile